createdAt,value
2023-05-19T00:02:11.745Z,1.80
2023-05-19T00:04:58.219Z,1.70
2023-05-19T00:07:46.114Z,1.90
2023-05-19T00:10:32.933Z,1.92
2023-05-19T00:13:19.660Z,1.90
2023-05-19T00:16:06.777Z,2.00
2023-05-19T00:18:54.029Z,2.00
2023-05-19T00:21:39.959Z,2.00
2023-05-19T00:24:26.274Z,2.10
2023-05-19T00:27:11.915Z,1.80
2023-05-19T00:29:57.826Z,2.30
2023-05-19T00:32:43.484Z,2.20
2023-05-19T00:35:30.983Z,2.20
2023-05-19T00:38:16.668Z,2.28
2023-05-19T00:41:05.083Z,2.08
2023-05-19T00:43:51.533Z,2.00
2023-05-19T00:46:37.852Z,2.00
2023-05-19T00:49:23.742Z,2.03
2023-05-19T00:52:10.757Z,1.98
2023-05-19T00:54:57.395Z,2.20
2023-05-19T00:57:44.374Z,2.33
2023-05-19T01:00:30.814Z,2.38
2023-05-19T01:03:16.600Z,2.22
2023-05-19T01:06:05.314Z,2.20
2023-05-19T01:08:52.757Z,2.42
2023-05-19T01:11:38.969Z,2.20
2023-05-19T01:14:24.394Z,2.40
2023-05-19T01:17:21.130Z,2.28
2023-05-19T01:20:16.571Z,2.38
2023-05-19T01:23:23.732Z,2.33
2023-05-19T01:26:54.948Z,2.17
2023-05-19T01:30:10.868Z,2.63
2023-05-19T01:33:01.254Z,2.28
2023-05-19T01:35:48.940Z,2.35
2023-05-19T01:38:35.612Z,2.63
2023-05-19T01:41:23.100Z,2.53
2023-05-19T01:44:11.958Z,2.50
2023-05-19T01:47:00.632Z,2.58
2023-05-19T01:49:47.089Z,2.20
2023-05-19T01:52:33.848Z,2.50
2023-05-19T01:55:19.820Z,2.42
2023-05-19T01:58:17.498Z,2.80
2023-05-19T02:01:16.499Z,2.50
2023-05-19T02:04:19.851Z,2.17
2023-05-19T02:07:15.461Z,2.35
2023-05-19T02:10:06.944Z,2.22
2023-05-19T02:12:57.897Z,2.58
2023-05-19T02:15:47.080Z,2.58
2023-05-19T02:18:33.792Z,2.20
2023-05-19T02:21:21.277Z,2.70
2023-05-19T02:24:07.825Z,2.70
2023-05-19T02:26:54.625Z,2.58
2023-05-19T02:29:40.435Z,2.33
2023-05-19T02:32:26.156Z,2.38
2023-05-19T02:35:12.965Z,2.38
2023-05-19T02:38:00.440Z,2.55
2023-05-19T02:40:46.206Z,2.40
2023-05-19T02:43:31.825Z,2.72
2023-05-19T02:46:17.723Z,2.47
2023-05-19T02:49:03.724Z,2.40
2023-05-19T02:51:49.701Z,2.28
2023-05-19T02:54:36.580Z,2.40
2023-05-19T02:57:22.320Z,2.50
2023-05-19T03:00:09.994Z,2.60
2023-05-19T03:02:55.528Z,2.70
2023-05-19T03:05:44.731Z,2.80
2023-05-19T03:08:30.285Z,2.70
2023-05-19T03:11:17.665Z,2.58
2023-05-19T03:14:03.347Z,2.85
2023-05-19T03:20:00.456Z,3.15
2023-05-19T03:22:46.133Z,2.92
2023-05-19T03:25:31.810Z,2.80
2023-05-19T03:28:18.852Z,2.95
2023-05-19T03:31:04.995Z,2.67
2023-05-19T03:33:55.707Z,3.00
2023-05-19T03:36:41.590Z,2.60
2023-05-19T03:39:32.081Z,2.40
2023-05-19T03:42:17.687Z,2.63
2023-05-19T03:48:19.674Z,2.63
2023-05-19T03:51:27.380Z,2.40
2023-05-19T03:54:15.353Z,2.53
2023-05-19T03:57:01.710Z,2.50
2023-05-19T03:59:48.302Z,2.17
2023-05-19T04:02:35.574Z,2.45
2023-05-19T04:05:21.209Z,2.42
2023-05-19T04:08:06.875Z,2.47
2023-05-19T04:10:52.895Z,2.13
2023-05-19T04:13:38.508Z,2.45
2023-05-19T04:16:24.237Z,2.28
2023-05-19T04:19:12.295Z,2.15
2023-05-19T04:21:58.726Z,2.60
2023-05-19T04:24:44.858Z,2.30
2023-05-19T04:27:31.867Z,2.00
2023-05-19T04:30:18.684Z,2.03
2023-05-19T04:33:05.429Z,2.10
2023-05-19T04:35:53.510Z,1.90
2023-05-19T04:38:41.004Z,2.00
2023-05-19T04:41:29.853Z,2.10
2023-05-19T04:44:15.914Z,2.00
2023-05-19T04:47:04.380Z,2.53
2023-05-19T04:49:50.939Z,2.30
2023-05-19T04:52:38.611Z,2.08
2023-05-19T04:55:32.455Z,2.53
2023-05-19T04:58:18.927Z,2.65
2023-05-19T05:01:06.662Z,1.98
2023-05-19T05:03:53.173Z,2.20
2023-05-19T05:06:39.600Z,1.85
2023-05-19T05:09:26.975Z,1.90
2023-05-19T05:12:17.117Z,2.20
2023-05-19T05:15:07.277Z,2.00
2023-05-19T05:17:54.131Z,1.90
2023-05-19T05:20:43.021Z,1.63
2023-05-19T05:23:31.634Z,2.03
2023-05-19T05:26:21.340Z,2.17
2023-05-19T05:29:09.880Z,1.75
2023-05-19T05:31:56.244Z,1.83
2023-05-19T05:34:43.149Z,1.92
2023-05-19T05:37:31.647Z,1.88
2023-05-19T05:40:19.354Z,2.05
2023-05-19T05:43:07.193Z,2.20
2023-05-19T05:45:57.792Z,2.17
2023-05-19T05:48:45.292Z,2.08
2023-05-19T05:51:32.296Z,2.17
2023-05-19T05:54:22.644Z,1.90
2023-05-19T05:57:10.971Z,1.98
2023-05-19T05:59:58.949Z,2.03
2023-05-19T06:02:47.407Z,1.75
2023-05-19T06:05:35.868Z,2.40
2023-05-19T06:08:22.070Z,2.33
2023-05-19T06:11:08.451Z,2.22
2023-05-19T06:13:56.189Z,1.98
2023-05-19T06:17:03.523Z,2.30
2023-05-19T06:19:50.222Z,2.13
2023-05-19T06:22:36.399Z,2.10
2023-05-19T06:25:23.523Z,1.80
2023-05-19T06:28:09.498Z,2.35
2023-05-19T06:30:55.663Z,2.10
2023-05-19T06:34:03.325Z,2.30
2023-05-19T06:36:49.540Z,1.85
2023-05-19T06:39:38.413Z,2.20
2023-05-19T06:42:24.451Z,2.28
2023-05-19T06:45:30.698Z,2.40
2023-05-19T06:48:19.312Z,2.30
2023-05-19T06:51:07.145Z,1.92
2023-05-19T06:53:53.967Z,3.03
2023-05-19T06:56:41.423Z,2.10
2023-05-19T06:59:27.647Z,2.55
2023-05-19T07:02:13.634Z,2.53
2023-05-19T07:04:59.734Z,2.70
2023-05-19T07:07:47.633Z,2.60
2023-05-19T07:10:37.834Z,2.80
2023-05-19T07:13:28.896Z,3.10
2023-05-19T07:16:16.383Z,2.85
2023-05-19T07:19:04.116Z,3.17
2023-05-19T07:21:53.287Z,2.75
2023-05-19T07:24:41.270Z,2.90
2023-05-19T07:27:27.652Z,2.60
2023-05-19T07:30:14.494Z,2.45
2023-05-19T07:33:00.644Z,2.75
2023-05-19T07:35:47.722Z,2.35
2023-05-19T07:38:33.569Z,1.83
2023-05-19T07:41:21.395Z,2.25
2023-05-19T07:44:07.779Z,2.00
2023-05-19T07:46:54.401Z,2.35
2023-05-19T07:49:40.867Z,1.88
2023-05-19T07:52:27.015Z,2.40
2023-05-19T07:55:13.044Z,1.85
2023-05-19T07:58:00.720Z,1.95
2023-05-19T08:00:46.594Z,1.92
2023-05-19T08:03:33.033Z,2.13
2023-05-19T08:06:19.008Z,1.83
2023-05-19T08:09:04.697Z,2.22
2023-05-19T08:11:50.498Z,2.00
2023-05-19T08:14:38.210Z,2.45
2023-05-19T08:17:25.341Z,1.80
2023-05-19T08:20:12.246Z,1.98
2023-05-19T08:22:58.517Z,1.80
2023-05-19T08:25:44.822Z,1.88
2023-05-19T08:28:30.418Z,2.13
2023-05-19T08:31:17.869Z,2.30
2023-05-19T08:34:04.264Z,2.15
2023-05-19T08:36:50.040Z,1.73
2023-05-19T08:39:36.048Z,1.88
2023-05-19T08:42:22.166Z,1.67
2023-05-19T08:45:09.699Z,1.70
2023-05-19T08:47:58.021Z,2.20
2023-05-19T08:50:55.159Z,1.83
2023-05-19T08:53:45.401Z,1.70
2023-05-19T08:56:32.426Z,1.75
2023-05-19T08:59:21.721Z,1.90
2023-05-19T09:02:13.066Z,1.70
2023-05-19T09:05:01.016Z,1.90
2023-05-19T09:08:12.636Z,2.25
2023-05-19T09:10:58.244Z,1.40
2023-05-19T09:13:43.622Z,1.80
2023-05-19T09:16:30.538Z,1.90
2023-05-19T09:19:16.723Z,1.73
2023-05-19T09:22:04.877Z,1.80
2023-05-19T09:24:51.688Z,1.77
2023-05-19T09:27:38.246Z,1.60
2023-05-19T09:30:24.958Z,2.05
2023-05-19T09:33:17.108Z,1.50
2023-05-19T09:36:04.518Z,1.63
2023-05-19T09:38:52.676Z,1.88
2023-05-19T09:41:38.542Z,1.80
2023-05-19T09:44:26.270Z,1.25
2023-05-19T09:47:13.618Z,1.60
2023-05-19T09:50:00.136Z,1.58
2023-05-19T09:52:45.966Z,1.63
2023-05-19T09:55:33.695Z,1.58
2023-05-19T09:58:20.146Z,1.80
2023-05-19T10:01:08.486Z,1.60
2023-05-19T10:03:56.065Z,1.70
2023-05-19T10:06:42.686Z,1.60
2023-05-19T10:09:30.139Z,1.52
2023-05-19T10:12:18.245Z,1.50
2023-05-19T10:15:05.823Z,1.80
2023-05-19T10:17:53.014Z,1.50
2023-05-19T10:20:40.974Z,1.73
2023-05-19T10:23:27.739Z,1.65
2023-05-19T10:26:15.104Z,1.52
2023-05-19T10:29:05.846Z,1.50
2023-05-19T10:31:56.019Z,1.77
2023-05-19T10:35:15.505Z,1.60
2023-05-19T10:38:15.562Z,1.40
2023-05-19T10:41:10.781Z,1.60
2023-05-19T10:44:14.424Z,1.52
2023-05-19T10:47:00.295Z,1.80
2023-05-19T10:49:45.900Z,1.88
2023-05-19T10:52:36.583Z,1.63
2023-05-19T10:55:47.677Z,1.80
2023-05-19T10:58:49.684Z,1.55
2023-05-19T11:01:37.164Z,1.50
2023-05-19T11:04:40.065Z,1.98
2023-05-19T11:07:25.805Z,1.60
2023-05-19T11:10:13.222Z,1.50
2023-05-19T11:12:59.374Z,1.77
2023-05-19T11:15:45.986Z,1.52
2023-05-19T11:18:34.251Z,1.98
2023-05-19T11:21:20.342Z,1.60
2023-05-19T11:24:09.149Z,1.77
2023-05-19T11:26:55.203Z,1.45
2023-05-19T11:29:41.866Z,1.70
2023-05-19T11:32:30.467Z,1.90
2023-05-19T11:35:19.431Z,1.60
2023-05-19T11:38:06.771Z,1.70
2023-05-19T11:40:54.237Z,1.60
2023-05-19T11:43:41.810Z,1.80
2023-05-19T11:46:28.336Z,1.83
2023-05-19T11:49:15.612Z,1.80
2023-05-19T11:52:06.540Z,1.50
2023-05-19T11:54:52.904Z,1.48
2023-05-19T11:57:39.637Z,1.50
2023-05-19T12:00:26.580Z,1.80
2023-05-19T12:03:13.587Z,1.50
2023-05-19T12:05:59.986Z,1.63
2023-05-19T12:08:47.215Z,1.90
2023-05-19T12:11:34.139Z,1.48
2023-05-19T12:14:20.133Z,1.55
2023-05-19T12:17:13.982Z,1.60
2023-05-19T12:20:00.458Z,1.70
2023-05-19T12:22:47.867Z,1.80
2023-05-19T12:25:34.985Z,1.50
2023-05-19T12:28:21.262Z,1.52
2023-05-19T12:31:07.721Z,1.67
2023-05-19T12:33:53.856Z,1.50
2023-05-19T12:36:41.887Z,1.40
2023-05-19T12:39:28.422Z,1.27
2023-05-19T12:42:16.555Z,1.30
2023-05-19T12:45:04.624Z,1.27
2023-05-19T12:47:51.923Z,1.42
2023-05-19T12:50:38.595Z,1.40
2023-05-19T12:53:27.180Z,1.83
2023-05-19T12:56:15.038Z,1.30
2023-05-19T12:59:02.347Z,1.60
2023-05-19T13:01:56.358Z,1.70
2023-05-19T13:04:42.837Z,1.50
2023-05-19T13:07:29.180Z,1.52
2023-05-19T13:10:15.485Z,1.80
2023-05-19T13:13:01.719Z,1.55
2023-05-19T13:15:49.624Z,1.50
2023-05-19T13:18:36.036Z,1.58
2023-05-19T13:21:22.061Z,1.80
2023-05-19T13:24:07.653Z,1.48
2023-05-19T13:26:54.016Z,1.30
2023-05-19T13:29:40.403Z,1.70
2023-05-19T13:32:27.728Z,1.20
2023-05-19T13:35:15.180Z,1.30
2023-05-19T13:38:01.544Z,1.70
2023-05-19T13:40:47.741Z,1.50
2023-05-19T13:43:34.395Z,1.67
2023-05-19T13:46:26.628Z,1.63
2023-05-19T13:49:20.144Z,1.40
2023-05-19T13:52:06.773Z,1.70
2023-05-19T13:54:57.985Z,1.50
2023-05-19T13:57:46.760Z,1.67
2023-05-19T14:00:32.913Z,1.80
2023-05-19T14:03:19.254Z,1.48
2023-05-19T14:06:07.236Z,1.60
2023-05-19T14:08:54.132Z,1.42
2023-05-19T14:11:40.580Z,1.67
2023-05-19T14:14:27.123Z,1.73
2023-05-19T14:17:13.641Z,1.50
2023-05-19T14:20:00.394Z,1.20
2023-05-19T14:22:48.383Z,1.30
2023-05-19T14:25:34.379Z,1.30
2023-05-19T14:28:21.016Z,1.13
2023-05-19T14:31:11.479Z,1.17
2023-05-19T14:33:57.684Z,1.27
2023-05-19T14:36:43.863Z,1.15
2023-05-19T14:39:31.794Z,1.05
2023-05-19T14:42:17.748Z,1.63
2023-05-19T14:45:04.397Z,1.20
2023-05-19T14:47:50.620Z,1.23
2023-05-19T14:50:43.711Z,1.08
2023-05-19T14:53:30.075Z,1.30
2023-05-19T14:56:17.334Z,1.00
2023-05-19T14:59:08.751Z,1.23
2023-05-19T15:04:45.513Z,1.27
2023-05-19T15:07:31.678Z,1.23
2023-05-19T15:10:17.931Z,1.15
2023-05-19T15:13:05.482Z,1.30
2023-05-19T15:15:58.847Z,1.20
2023-05-19T15:18:50.835Z,1.20
2023-05-19T15:21:37.193Z,1.02
2023-05-19T15:24:23.387Z,1.10
2023-05-19T15:27:09.494Z,1.40
2023-05-19T15:29:56.268Z,1.02
2023-05-19T15:32:42.467Z,1.10
2023-05-19T15:35:28.347Z,1.30
2023-05-19T15:38:13.957Z,1.23
2023-05-19T15:40:59.974Z,1.30
2023-05-19T15:43:46.190Z,1.15
2023-05-19T15:46:34.654Z,1.40
2023-05-19T15:49:20.357Z,1.42
2023-05-19T15:52:07.103Z,1.20
2023-05-19T15:54:53.684Z,1.40
2023-05-19T15:57:42.383Z,1.17
2023-05-19T16:00:28.134Z,1.33
2023-05-19T16:03:15.772Z,1.40
2023-05-19T16:06:01.539Z,1.30
2023-05-19T16:08:47.467Z,1.10
2023-05-19T16:11:33.046Z,1.02
2023-05-19T16:14:18.753Z,1.23
2023-05-19T16:17:04.868Z,1.42
2023-05-19T16:19:52.149Z,1.27
2023-05-19T16:22:38.349Z,0.90
2023-05-19T16:25:23.957Z,1.30
2023-05-19T16:28:10.269Z,1.20
2023-05-19T16:30:57.603Z,1.27
2023-05-19T16:33:43.879Z,1.10
2023-05-19T16:36:30.828Z,1.20
2023-05-19T16:39:16.481Z,1.33
2023-05-19T16:42:02.074Z,1.20
2023-05-19T16:44:48.099Z,0.90
2023-05-19T16:47:34.729Z,1.27
2023-05-19T16:50:20.484Z,1.30
2023-05-19T16:53:08.511Z,1.25
2023-05-19T16:55:54.405Z,1.20
2023-05-19T16:58:40.078Z,1.20
2023-05-19T17:01:25.977Z,1.13
2023-05-19T17:04:11.313Z,1.20
2023-05-19T17:06:57.091Z,1.27
2023-05-19T17:09:44.583Z,1.58
2023-05-19T17:12:30.587Z,1.27
2023-05-19T17:15:16.439Z,1.10
2023-05-19T17:18:02.376Z,1.30
2023-05-19T17:20:47.868Z,1.17
2023-05-19T17:23:33.529Z,1.15
2023-05-19T17:26:21.048Z,1.10
2023-05-19T17:29:07.991Z,1.10
2023-05-19T17:31:53.817Z,1.10
2023-05-19T17:34:39.896Z,1.10
2023-05-19T17:37:28.169Z,1.05
2023-05-19T17:40:14.297Z,1.02
2023-05-19T17:43:01.653Z,1.10
2023-05-19T17:45:47.422Z,1.08
2023-05-19T17:48:33.420Z,1.17
2023-05-19T17:51:20.196Z,1.00
2023-05-19T17:54:08.775Z,1.00
2023-05-19T17:56:58.500Z,1.10
2023-05-19T17:59:46.620Z,1.20
2023-05-19T18:02:33.762Z,1.17
2023-05-19T18:05:20.673Z,1.08
2023-05-19T18:08:08.372Z,1.08
2023-05-19T18:10:57.185Z,1.48
2023-05-19T18:13:42.684Z,1.38
2023-05-19T18:16:29.949Z,1.40
2023-05-19T18:19:20.351Z,0.82
2023-05-19T18:22:06.346Z,1.02
2023-05-19T18:24:51.787Z,1.10
2023-05-19T18:27:37.273Z,1.08
2023-05-19T18:30:23.067Z,1.00
2023-05-19T18:33:09.998Z,1.10
2023-05-19T18:35:56.106Z,0.90
2023-05-19T18:38:41.821Z,0.95
2023-05-19T18:41:28.222Z,0.90
2023-05-19T18:44:13.827Z,0.90
2023-05-19T18:46:59.895Z,0.80
2023-05-19T18:49:46.831Z,1.00
2023-05-19T18:52:32.509Z,1.10
2023-05-19T18:55:18.207Z,0.82
2023-05-19T18:58:04.166Z,0.80
2023-05-19T19:00:49.916Z,0.98
2023-05-19T19:03:36.093Z,1.05
2023-05-19T19:06:23.363Z,0.90
2023-05-19T19:09:08.919Z,1.20
2023-05-19T19:11:54.712Z,1.25
2023-05-19T19:14:40.133Z,0.93
2023-05-19T19:17:25.915Z,0.82
2023-05-19T19:20:12.936Z,0.73
2023-05-19T19:23:00.172Z,0.70
2023-05-19T19:25:46.058Z,0.80
2023-05-19T19:28:31.695Z,0.90
2023-05-19T19:31:17.663Z,0.88
2023-05-19T19:34:03.488Z,0.90
2023-05-19T19:36:49.546Z,0.75
2023-05-19T19:39:36.871Z,0.80
2023-05-19T19:42:22.974Z,0.80
2023-05-19T19:45:10.275Z,0.90
2023-05-19T19:47:56.036Z,0.70
2023-05-19T19:50:41.649Z,0.77
2023-05-19T19:53:27.708Z,0.90
2023-05-19T19:56:14.743Z,0.70
2023-05-19T19:59:01.014Z,0.73
2023-05-19T20:01:46.910Z,0.90
2023-05-19T20:04:32.867Z,0.75
2023-05-19T20:07:18.986Z,0.80
2023-05-19T20:10:05.950Z,0.70
2023-05-19T20:12:53.218Z,0.82
2023-05-19T20:15:39.108Z,0.70
2023-05-19T20:18:24.861Z,0.88
2023-05-19T20:21:10.535Z,0.82
2023-05-19T20:23:56.487Z,0.63
2023-05-19T20:26:42.098Z,0.80
2023-05-19T20:29:29.314Z,0.73
2023-05-19T20:32:14.897Z,0.73
2023-05-19T20:35:01.212Z,0.77
2023-05-19T20:37:46.938Z,0.85
2023-05-19T20:40:32.511Z,0.70
2023-05-19T20:43:18.254Z,0.80
2023-05-19T20:46:05.416Z,0.73
2023-05-19T20:52:04.405Z,1.08
2023-05-19T20:54:50.234Z,0.70
2023-05-19T20:57:35.987Z,1.00
2023-05-19T21:00:21.980Z,0.73
2023-05-19T21:03:09.132Z,1.10
2023-05-19T21:05:55.649Z,0.80
2023-05-19T21:08:41.218Z,1.00
2023-05-19T21:11:27.153Z,0.80
2023-05-19T21:14:12.694Z,0.90
2023-05-19T21:16:58.532Z,0.70
2023-05-19T21:19:45.330Z,0.80
2023-05-19T21:22:31.542Z,0.65
2023-05-19T21:25:17.393Z,0.70
2023-05-19T21:28:03.121Z,1.05
2023-05-19T21:30:49.442Z,0.80
2023-05-19T21:33:35.901Z,0.68
2023-05-19T21:36:25.625Z,0.77
2023-05-19T21:39:11.365Z,0.73
2023-05-19T21:41:58.794Z,0.80
2023-05-19T21:44:44.718Z,0.70
2023-05-19T21:47:30.658Z,0.70
2023-05-19T21:50:18.693Z,0.50
2023-05-19T21:53:06.023Z,0.85
2023-05-19T21:55:52.321Z,0.57
2023-05-19T21:58:38.129Z,0.77
2023-05-19T22:01:24.081Z,0.73
2023-05-19T22:04:09.884Z,0.80
2023-05-19T22:06:56.006Z,0.80
2023-05-19T22:09:43.262Z,0.70
2023-05-19T22:12:30.903Z,0.80
2023-05-19T22:15:16.760Z,0.73
2023-05-19T22:18:02.764Z,0.90
2023-05-19T22:20:48.305Z,0.90
2023-05-19T22:23:33.967Z,0.73
2023-05-19T22:26:21.480Z,0.73
2023-05-19T22:29:07.064Z,0.73
2023-05-19T22:31:52.610Z,0.73
2023-05-19T22:35:05.116Z,0.88
2023-05-19T22:37:51.001Z,0.50
2023-05-19T22:40:36.968Z,0.80
2023-05-19T22:43:24.053Z,0.60
2023-05-19T22:46:10.003Z,0.60
2023-05-19T22:48:55.961Z,0.70
2023-05-19T22:51:41.540Z,0.70
2023-05-19T22:54:27.163Z,0.65
2023-05-19T22:57:12.640Z,0.80
2023-05-19T23:00:00.605Z,0.90
2023-05-19T23:02:46.533Z,0.75
2023-05-19T23:05:32.450Z,0.70
2023-05-19T23:08:18.355Z,0.70
2023-05-19T23:11:04.093Z,0.90
2023-05-19T23:13:49.568Z,0.70
2023-05-19T23:16:36.354Z,0.60
2023-05-19T23:19:22.427Z,0.60
2023-05-19T23:22:07.950Z,0.70
2023-05-19T23:24:54.217Z,0.77
2023-05-19T23:27:39.673Z,0.75
2023-05-19T23:30:26.299Z,0.63
2023-05-19T23:33:13.471Z,0.77
2023-05-19T23:35:59.803Z,0.63
2023-05-19T23:38:45.566Z,0.80
2023-05-19T23:41:31.375Z,0.80
2023-05-19T23:44:18.763Z,0.73
2023-05-19T23:47:04.955Z,0.70
2023-05-19T23:49:51.829Z,0.60
2023-05-19T23:52:37.538Z,0.60
2023-05-19T23:55:23.072Z,0.70
2023-05-19T23:58:08.682Z,0.80
